Shinmichimaru — JM6603 — position and weather

sailwx.info

Track history (hours):
 
Tides and Currents Weather Stations Pressure Air Temp Water Temp Dewpoint Dewpoint Depression Visibility Wind Speed Wind Dir Waves Ship Positions

Shinmichimaru

Last reported at 2017-Dec-11 17:00 UTC. Time now 2017-Dec-12 04:49 UTC.
Position N 33°53' E 131°10'.

Length 105 m; draft 6.4 m.

Type: Tanker. MMSI: 432356000.

Date/timePositionNaut miles runAvg speedWind from/ knotsBaromVisibWave heightAir tempDewpointWater temp
2017-Dec-11 17:00N 33°53' E 131°10'612.0
2017-Dec-11 16:30N 33°51' E 131°17'611.9
2017-Dec-11 16:00N 33°48' E 131°23'611.8
2017-Dec-11 15:30N 33°45' E 131°29'611.4
2017-Dec-11 15:00N 33°43' E 131°36'611.8
2017-Dec-11 14:30N 33°41' E 131°42'611.0
2017-Dec-11 14:00N 33°38' E 131°48'611.7
2017-Dec-11 13:30N 33°33' E 131°51'811.5
2017-Dec-11 12:48N 33°26' E 131°56'411.2
2017-Dec-11 12:28N 33°22' E 131°58'26210.1
2017-Dec-10 10:32N 34°32' E 137°02'113.6
2017-Dec-10 10:26N 34°33' E 137°00'613.2
2017-Dec-10 09:56N 34°37' E 136°54'612.9
2017-Dec-10 09:30N 34°41' E 136°49'713.1
2017-Dec-10 09:00N 34°47' E 136°46'713.1
2017-Dec-10 08:30N 34°53' E 136°42'5 9.8
2017-Dec-10 08:00N 34°57' E 136°39'1 1.1
2017-Dec-10 07:29N 34°57' E 136°38'0 0.0
2017-Dec-10 06:59N 34°57' E 136°38'0 0.0
2017-Dec-10 06:29N 34°57' E 136°38'0 0.1
2017-Dec-10 05:59N 34°57' E 136°38'0 0.1
2017-Dec-10 05:29N 34°57' E 136°38'0 0.0
2017-Dec-10 04:59N 34°57' E 136°38'0 0.0
2017-Dec-10 04:29N 34°57' E 136°38'0 0.1
2017-Dec-10 03:56N 34°57' E 136°38'0 0.0
2017-Dec-10 03:30N 34°57' E 136°38'0 0.1
2017-Dec-10 02:59N 34°57' E 136°38'0 0.0
2017-Dec-10 02:26N 34°57' E 136°38'0 0.0
2017-Dec-10 02:00N 34°57' E 136°38'0 0.0
2017-Dec-10 01:29N 34°57' E 136°38'0 0.0
2017-Dec-10 00:59N 34°57' E 136°38'0 0.0
2017-Dec-10 00:30N 34°57' E 136°38'0 0.0
2017-Dec-09 23:59N 34°57' E 136°38'0 0.1
2017-Dec-09 23:30N 34°57' E 136°38'3 5.3
2017-Dec-09 23:00N 34°57' E 136°42'0 0.0
2017-Dec-09 22:25N 34°57' E 136°42'0 0.1
2017-Dec-09 21:58N 34°57' E 136°42'0 0.0
2017-Dec-09 21:25N 34°57' E 136°42'0 0.0
2017-Dec-09 20:55N 34°57' E 136°42'0 0.0
2017-Dec-09 20:25N 34°57' E 136°42'0 0.0
2017-Dec-09 19:55N 34°57' E 136°42'0 0.0
2017-Dec-09 19:25N 34°57' E 136°42'0 0.0
2017-Dec-09 18:55N 34°57' E 136°42'0 0.0
2017-Dec-09 18:25N 34°57' E 136°42'0 0.1
2017-Dec-09 17:55N 34°57' E 136°42'0 0.1
2017-Dec-09 17:28N 34°57' E 136°42'0 0.1
2017-Dec-09 16:55N 34°57' E 136°42'0 0.0
2017-Dec-09 16:25N 34°57' E 136°42'0 0.0
2017-Dec-09 15:58N 34°57' E 136°42'0 0.1
2017-Dec-09 15:25N 34°57' E 136°42'0 0.0
2017-Dec-09 14:58N 34°57' E 136°42'0 0.1
2017-Dec-09 14:25N 34°57' E 136°42'0 0.1
2017-Dec-09 13:55N 34°57' E 136°42'0 0.1
2017-Dec-09 13:25N 34°57' E 136°42'0 0.0
2017-Dec-09 12:55N 34°57' E 136°42'1 1.4
2017-Dec-09 12:30N 34°57' E 136°42'713.2
2017-Dec-09 12:00N 34°51' E 136°45'713.5
2017-Dec-09 11:30N 34°45' E 136°49'613.0
2017-Dec-09 11:00N 34°40' E 136°54'713.2
2017-Dec-09 10:30N 34°35' E 136°59'713.4
2017-Dec-09 10:00N 34°31' E 137°06'714.1
2017-Dec-09 09:30N 34°31' E 137°14'2112.7
2017-Dec-09 07:49N 34°31' E 137°41'513.6
2017-Dec-09 07:26N 34°31' E 137°47'613.2
2017-Dec-09 07:00N 34°31' E 137°54'612.8
2017-Dec-09 06:30N 34°31' E 138°01'612.3
2017-Dec-09 06:00N 34°31' E 138°09'611.8
2017-Dec-09 05:28N 34°33' E 138°16'613.8
2017-Dec-09 05:00N 34°39' E 138°20'814.1
2017-Dec-09 04:25N 34°46' E 138°25'713.8
2017-Dec-09 03:57N 34°52' E 138°28'613.8
2017-Dec-09 03:30N 34°57' E 138°32'4 8.2
2017-Dec-09 03:00N 35°01' E 138°31'1 1.3
2017-Dec-09 02:29N 35°02' E 138°30'0 0.0
2017-Dec-09 01:59N 35°02' E 138°30'0 0.0
2017-Dec-09 01:29N 35°02' E 138°30'0 0.0
2017-Dec-09 00:59N 35°02' E 138°30'0 0.0
2017-Dec-09 00:29N 35°02' E 138°30'0 0.0
2017-Dec-08 23:59N 35°02' E 138°30'0 0.0
2017-Dec-08 23:25N 35°02' E 138°30'0 0.0
2017-Dec-08 22:59N 35°02' E 138°30'0 0.0
2017-Dec-08 22:29N 35°02' E 138°30'0 0.8
2017-Dec-08 22:00N 35°02' E 138°30'2 3.8
2017-Dec-08 21:30N 35°02' E 138°32'1 1.1
2017-Dec-08 21:00N 35°02' E 138°32'0 0.1
2017-Dec-08 20:28N 35°02' E 138°32'0 0.0
2017-Dec-08 19:58N 35°02' E 138°32'0 0.0
2017-Dec-08 19:28N 35°02' E 138°32'0 0.0
2017-Dec-08 18:58N 35°02' E 138°32'0 0.1
2017-Dec-08 18:28N 35°02' E 138°32'0 0.1
2017-Dec-08 17:58N 35°02' E 138°32'0 0.0
2017-Dec-08 17:28N 35°02' E 138°32'0 0.1
2017-Dec-08 16:52N 35°02' E 138°32'0 0.0
2017-Dec-08 16:29N 35°02' E 138°32'0 0.5
2017-Dec-08 16:01N 35°02' E 138°32'510.0
2017-Dec-08 15:30N 34°57' E 138°35'713.2
2017-Dec-08 14:57N 34°50' E 138°38'614.0
2017-Dec-08 14:30N 34°44' E 138°40'713.4
2017-Dec-08 13:57N 34°38' E 138°44'612.4
2017-Dec-08 13:30N 34°34' E 138°48'611.0
2017-Dec-08 12:59N 34°31' E 138°54'511.3
2017-Dec-08 12:30N 34°33' E 139°00'713.2
2017-Dec-08 12:00N 34°38' E 139°06'812.5
2017-Dec-08 11:21N 34°44' E 139°13'412.3
2017-Dec-08 11:00N 34°47' E 139°17'612.1
2017-Dec-08 10:30N 34°51' E 139°22'611.2
2017-Dec-08 09:59N 34°55' E 139°27'611.6
2017-Dec-08 09:30N 34°58' E 139°33'612.4
2017-Dec-08 09:00N 35°03' E 139°38'713.8
2017-Dec-08 08:30N 35°08' E 139°44'713.2
2017-Dec-08 08:01N 35°14' E 139°46'612.3
2017-Dec-08 07:30N 35°20' E 139°43'612.1
2017-Dec-08 07:01N 35°25' E 139°44'4 6.7
2017-Dec-08 06:28N 35°29' E 139°46'0 0.0
2017-Dec-08 05:58N 35°29' E 139°46'0 0.0
2017-Dec-08 05:28N 35°29' E 139°46'0 0.0
2017-Dec-08 04:58N 35°29' E 139°46'1 2.2
2017-Dec-08 04:30N 35°29' E 139°47'2 4.0
2017-Dec-08 03:58N 35°30' E 139°45'0 0.0
2017-Dec-08 03:28N 35°30' E 139°45'0 0.0
2017-Dec-08 02:55N 35°30' E 139°45'0 0.0
2017-Dec-08 02:28N 35°30' E 139°45'0 0.0
2017-Dec-08 01:58N 35°30' E 139°45'0 0.0
2017-Dec-08 01:28N 35°30' E 139°45'0 0.0
2017-Dec-08 00:58N 35°30' E 139°45'0 0.0
2017-Dec-08 00:28N 35°30' E 139°45'0 0.0
2017-Dec-07 23:59N 35°30' E 139°45'2 4.1
2017-Dec-07 23:30N 35°29' E 139°43'4 7.1
2017-Dec-07 23:00N 35°26' E 139°45'4 8.6
2017-Dec-07 22:31N 35°22' E 139°45'611.9
2017-Dec-07 22:01N 35°16' E 139°47'713.4
2017-Dec-07 21:31N 35°09' E 139°46'713.7
2017-Dec-07 21:00N 35°03' E 139°44'712.3
2017-Dec-07 20:28N 34°56' E 139°45'1210.0
2017-Dec-07 19:17N 34°53' E 139°59'310.7
2017-Dec-07 19:00N 34°55' E 140°03'  
2017-Dec-04 09:49N 35°02' E 140°21'614.4
2017-Dec-04 09:23N 34°59' E 140°15'613.6
2017-Dec-04 08:58N 34°56' E 140°09'712.9
2017-Dec-04 08:27N 34°53' E 140°01'713.6
2017-Dec-04 07:54N 34°51' E 139°53'513.0
2017-Dec-04 07:30N 34°53' E 139°47'713.9
2017-Dec-04 07:00N 34°59' E 139°42'612.4
2017-Dec-04 06:30N 35°05' E 139°44'613.3
2017-Dec-04 06:00N 35°11' E 139°46'612.3
2017-Dec-04 05:30N 35°17' E 139°45'612.3
2017-Dec-04 05:00N 35°23' E 139°42'612.6
2017-Dec-04 04:30N 35°27' E 139°48'612.5
2017-Dec-04 04:00N 35°30' E 139°55'510.2
2017-Dec-04 03:30N 35°29' E 140°01'0 0.9
2017-Dec-04 03:00N 35°28' E 140°01'0 0.0
2017-Dec-04 02:30N 35°28' E 140°01'0 0.0
2017-Dec-04 02:00N 35°28' E 140°01'0 0.0
2017-Dec-04 01:30N 35°28' E 140°01'0 0.0
2017-Dec-04 00:36N 35°28' E 140°01'0 0.0
2017-Dec-04 00:30N 35°28' E 140°01'0 0.0
2017-Dec-03 23:54N 35°28' E 140°01'0 0.0
2017-Dec-03 23:18N 35°28' E 140°01'0 0.0
2017-Dec-03 22:57N 35°28' E 140°01'0 0.0
2017-Dec-03 22:30N 35°28' E 140°01'2 3.8
2017-Dec-03 22:00N 35°30' E 139°59'1 1.4
2017-Dec-03 21:27N 35°30' E 139°58'0 0.0
2017-Dec-03 21:00N 35°30' E 139°58'0 0.0
2017-Dec-03 20:30N 35°30' E 139°58'0 0.0
2017-Dec-03 20:00N 35°30' E 139°58'0 0.0
2017-Dec-03 19:30N 35°30' E 139°58'0 0.0
2017-Dec-03 19:00N 35°30' E 139°58'3 5.7
2017-Dec-03 18:31N 35°29' E 139°55'713.4
2017-Dec-03 18:00N 35°26' E 139°48'713.1
2017-Dec-03 17:30N 35°20' E 139°44'612.6
2017-Dec-03 17:00N 35°14' E 139°47'713.1
2017-Dec-03 16:30N 35°08' E 139°45'713.1
2017-Dec-03 16:00N 35°01' E 139°43'611.4
2017-Dec-03 15:30N 34°55' E 139°44'1310.9
2017-Dec-03 14:18N 34°53' E 139°60'713.0
2017-Dec-03 13:47N 34°56' E 140°07'  
Track history (hours):
 
Tides and Currents Weather Stations Pressure Air Temp Water Temp Dewpoint Dewpoint Depression Visibility Wind Speed Wind Dir Waves Ship Positions

Shinmichimaru

Last reported at 2017-Dec-11 17:00 UTC. Time now 2017-Dec-12 04:49 UTC.
Position N 33°53' E 131°10'.

Length 105 m; draft 6.4 m.

Type: Tanker. MMSI: 432356000.

Date/timePositionNaut miles runAvg speedWind from/ knotsBaromVisibWave heightAir tempDewpointWater temp
2017-Dec-11 17:00N 33°53' E 131°10'612.0
2017-Dec-11 16:30N 33°51' E 131°17'611.9
2017-Dec-11 16:00N 33°48' E 131°23'611.8
2017-Dec-11 15:30N 33°45' E 131°29'611.4
2017-Dec-11 15:00N 33°43' E 131°36'611.8
2017-Dec-11 14:30N 33°41' E 131°42'611.0
2017-Dec-11 14:00N 33°38' E 131°48'611.7
2017-Dec-11 13:30N 33°33' E 131°51'811.5
2017-Dec-11 12:48N 33°26' E 131°56'411.2
2017-Dec-11 12:28N 33°22' E 131°58'26210.1
2017-Dec-10 10:32N 34°32' E 137°02'113.6
2017-Dec-10 10:26N 34°33' E 137°00'613.2
2017-Dec-10 09:56N 34°37' E 136°54'612.9
2017-Dec-10 09:30N 34°41' E 136°49'713.1
2017-Dec-10 09:00N 34°47' E 136°46'713.1
2017-Dec-10 08:30N 34°53' E 136°42'5 9.8
2017-Dec-10 08:00N 34°57' E 136°39'1 1.1
2017-Dec-10 07:29N 34°57' E 136°38'0 0.0
2017-Dec-10 06:59N 34°57' E 136°38'0 0.0
2017-Dec-10 06:29N 34°57' E 136°38'0 0.1
2017-Dec-10 05:59N 34°57' E 136°38'0 0.1
2017-Dec-10 05:29N 34°57' E 136°38'0 0.0
2017-Dec-10 04:59N 34°57' E 136°38'0 0.0
2017-Dec-10 04:29N 34°57' E 136°38'0 0.1
2017-Dec-10 03:56N 34°57' E 136°38'0 0.0
2017-Dec-10 03:30N 34°57' E 136°38'0 0.1
2017-Dec-10 02:59N 34°57' E 136°38'0 0.0
2017-Dec-10 02:26N 34°57' E 136°38'0 0.0
2017-Dec-10 02:00N 34°57' E 136°38'0 0.0
2017-Dec-10 01:29N 34°57' E 136°38'0 0.0
2017-Dec-10 00:59N 34°57' E 136°38'0 0.0
2017-Dec-10 00:30N 34°57' E 136°38'0 0.0
2017-Dec-09 23:59N 34°57' E 136°38'0 0.1
2017-Dec-09 23:30N 34°57' E 136°38'3 5.3
2017-Dec-09 23:00N 34°57' E 136°42'0 0.0
2017-Dec-09 22:25N 34°57' E 136°42'0 0.1
2017-Dec-09 21:58N 34°57' E 136°42'0 0.0
2017-Dec-09 21:25N 34°57' E 136°42'0 0.0
2017-Dec-09 20:55N 34°57' E 136°42'0 0.0
2017-Dec-09 20:25N 34°57' E 136°42'0 0.0
2017-Dec-09 19:55N 34°57' E 136°42'0 0.0
2017-Dec-09 19:25N 34°57' E 136°42'0 0.0
2017-Dec-09 18:55N 34°57' E 136°42'0 0.0
2017-Dec-09 18:25N 34°57' E 136°42'0 0.1
2017-Dec-09 17:55N 34°57' E 136°42'0 0.1
2017-Dec-09 17:28N 34°57' E 136°42'0 0.1
2017-Dec-09 16:55N 34°57' E 136°42'0 0.0
2017-Dec-09 16:25N 34°57' E 136°42'0 0.0
2017-Dec-09 15:58N 34°57' E 136°42'0 0.1
2017-Dec-09 15:25N 34°57' E 136°42'0 0.0
2017-Dec-09 14:58N 34°57' E 136°42'0 0.1
2017-Dec-09 14:25N 34°57' E 136°42'0 0.1
2017-Dec-09 13:55N 34°57' E 136°42'0 0.1
2017-Dec-09 13:25N 34°57' E 136°42'0 0.0
2017-Dec-09 12:55N 34°57' E 136°42'1 1.4
2017-Dec-09 12:30N 34°57' E 136°42'713.2
2017-Dec-09 12:00N 34°51' E 136°45'713.5
2017-Dec-09 11:30N 34°45' E 136°49'613.0
2017-Dec-09 11:00N 34°40' E 136°54'713.2
2017-Dec-09 10:30N 34°35' E 136°59'713.4
2017-Dec-09 10:00N 34°31' E 137°06'714.1
2017-Dec-09 09:30N 34°31' E 137°14'2112.7
2017-Dec-09 07:49N 34°31' E 137°41'513.6
2017-Dec-09 07:26N 34°31' E 137°47'613.2
2017-Dec-09 07:00N 34°31' E 137°54'612.8
2017-Dec-09 06:30N 34°31' E 138°01'612.3
2017-Dec-09 06:00N 34°31' E 138°09'611.8
2017-Dec-09 05:28N 34°33' E 138°16'613.8
2017-Dec-09 05:00N 34°39' E 138°20'814.1
2017-Dec-09 04:25N 34°46' E 138°25'713.8
2017-Dec-09 03:57N 34°52' E 138°28'613.8
2017-Dec-09 03:30N 34°57' E 138°32'4 8.2
2017-Dec-09 03:00N 35°01' E 138°31'1 1.3
2017-Dec-09 02:29N 35°02' E 138°30'0 0.0
2017-Dec-09 01:59N 35°02' E 138°30'0 0.0
2017-Dec-09 01:29N 35°02' E 138°30'0 0.0
2017-Dec-09 00:59N 35°02' E 138°30'0 0.0
2017-Dec-09 00:29N 35°02' E 138°30'0 0.0
2017-Dec-08 23:59N 35°02' E 138°30'0 0.0
2017-Dec-08 23:25N 35°02' E 138°30'0 0.0
2017-Dec-08 22:59N 35°02' E 138°30'0 0.0
2017-Dec-08 22:29N 35°02' E 138°30'0 0.8
2017-Dec-08 22:00N 35°02' E 138°30'2 3.8
2017-Dec-08 21:30N 35°02' E 138°32'1 1.1
2017-Dec-08 21:00N 35°02' E 138°32'0 0.1
2017-Dec-08 20:28N 35°02' E 138°32'0 0.0
2017-Dec-08 19:58N 35°02' E 138°32'0 0.0
2017-Dec-08 19:28N 35°02' E 138°32'0 0.0
2017-Dec-08 18:58N 35°02' E 138°32'0 0.1
2017-Dec-08 18:28N 35°02' E 138°32'0 0.1
2017-Dec-08 17:58N 35°02' E 138°32'0 0.0
2017-Dec-08 17:28N 35°02' E 138°32'0 0.1
2017-Dec-08 16:52N 35°02' E 138°32'0 0.0
2017-Dec-08 16:29N 35°02' E 138°32'0 0.5
2017-Dec-08 16:01N 35°02' E 138°32'510.0
2017-Dec-08 15:30N 34°57' E 138°35'713.2
2017-Dec-08 14:57N 34°50' E 138°38'614.0
2017-Dec-08 14:30N 34°44' E 138°40'713.4
2017-Dec-08 13:57N 34°38' E 138°44'612.4
2017-Dec-08 13:30N 34°34' E 138°48'611.0
2017-Dec-08 12:59N 34°31' E 138°54'511.3
2017-Dec-08 12:30N 34°33' E 139°00'713.2
2017-Dec-08 12:00N 34°38' E 139°06'812.5
2017-Dec-08 11:21N 34°44' E 139°13'412.3
2017-Dec-08 11:00N 34°47' E 139°17'612.1
2017-Dec-08 10:30N 34°51' E 139°22'611.2
2017-Dec-08 09:59N 34°55' E 139°27'611.6
2017-Dec-08 09:30N 34°58' E 139°33'612.4
2017-Dec-08 09:00N 35°03' E 139°38'713.8
2017-Dec-08 08:30N 35°08' E 139°44'713.2
2017-Dec-08 08:01N 35°14' E 139°46'612.3
2017-Dec-08 07:30N 35°20' E 139°43'612.1
2017-Dec-08 07:01N 35°25' E 139°44'4 6.7
2017-Dec-08 06:28N 35°29' E 139°46'0 0.0
2017-Dec-08 05:58N 35°29' E 139°46'0 0.0
2017-Dec-08 05:28N 35°29' E 139°46'0 0.0
2017-Dec-08 04:58N 35°29' E 139°46'1 2.2
2017-Dec-08 04:30N 35°29' E 139°47'2 4.0
2017-Dec-08 03:58N 35°30' E 139°45'0 0.0
2017-Dec-08 03:28N 35°30' E 139°45'0 0.0
2017-Dec-08 02:55N 35°30' E 139°45'0 0.0
2017-Dec-08 02:28N 35°30' E 139°45'0 0.0
2017-Dec-08 01:58N 35°30' E 139°45'0 0.0
2017-Dec-08 01:28N 35°30' E 139°45'0 0.0
2017-Dec-08 00:58N 35°30' E 139°45'0 0.0
2017-Dec-08 00:28N 35°30' E 139°45'0 0.0
2017-Dec-07 23:59N 35°30' E 139°45'2 4.1
2017-Dec-07 23:30N 35°29' E 139°43'4 7.1
2017-Dec-07 23:00N 35°26' E 139°45'4 8.6
2017-Dec-07 22:31N 35°22' E 139°45'611.9
2017-Dec-07 22:01N 35°16' E 139°47'713.4
2017-Dec-07 21:31N 35°09' E 139°46'713.7
2017-Dec-07 21:00N 35°03' E 139°44'712.3
2017-Dec-07 20:28N 34°56' E 139°45'1210.0
2017-Dec-07 19:17N 34°53' E 139°59'310.7
2017-Dec-07 19:00N 34°55' E 140°03'  
2017-Dec-04 09:49N 35°02' E 140°21'614.4
2017-Dec-04 09:23N 34°59' E 140°15'613.6
2017-Dec-04 08:58N 34°56' E 140°09'712.9
2017-Dec-04 08:27N 34°53' E 140°01'713.6
2017-Dec-04 07:54N 34°51' E 139°53'513.0
2017-Dec-04 07:30N 34°53' E 139°47'713.9
2017-Dec-04 07:00N 34°59' E 139°42'612.4
2017-Dec-04 06:30N 35°05' E 139°44'613.3
2017-Dec-04 06:00N 35°11' E 139°46'612.3
2017-Dec-04 05:30N 35°17' E 139°45'612.3
2017-Dec-04 05:00N 35°23' E 139°42'612.6
2017-Dec-04 04:30N 35°27' E 139°48'612.5
2017-Dec-04 04:00N 35°30' E 139°55'510.2
2017-Dec-04 03:30N 35°29' E 140°01'0 0.9
2017-Dec-04 03:00N 35°28' E 140°01'0 0.0
2017-Dec-04 02:30N 35°28' E 140°01'0 0.0
2017-Dec-04 02:00N 35°28' E 140°01'0 0.0
2017-Dec-04 01:30N 35°28' E 140°01'0 0.0
2017-Dec-04 00:36N 35°28' E 140°01'0 0.0
2017-Dec-04 00:30N 35°28' E 140°01'0 0.0
2017-Dec-03 23:54N 35°28' E 140°01'0 0.0
2017-Dec-03 23:18N 35°28' E 140°01'0 0.0
2017-Dec-03 22:57N 35°28' E 140°01'0 0.0
2017-Dec-03 22:30N 35°28' E 140°01'2 3.8
2017-Dec-03 22:00N 35°30' E 139°59'1 1.4
2017-Dec-03 21:27N 35°30' E 139°58'0 0.0
2017-Dec-03 21:00N 35°30' E 139°58'0 0.0
2017-Dec-03 20:30N 35°30' E 139°58'0 0.0
2017-Dec-03 20:00N 35°30' E 139°58'0 0.0
2017-Dec-03 19:30N 35°30' E 139°58'0 0.0
2017-Dec-03 19:00N 35°30' E 139°58'3 5.7
2017-Dec-03 18:31N 35°29' E 139°55'713.4
2017-Dec-03 18:00N 35°26' E 139°48'713.1
2017-Dec-03 17:30N 35°20' E 139°44'612.6
2017-Dec-03 17:00N 35°14' E 139°47'713.1
2017-Dec-03 16:30N 35°08' E 139°45'713.1
2017-Dec-03 16:00N 35°01' E 139°43'611.4
2017-Dec-03 15:30N 34°55' E 139°44'1310.9
2017-Dec-03 14:18N 34°53' E 139°60'713.0
2017-Dec-03 13:47N 34°56' E 140°07'  

Dump ship's entire track history